Map

Track Data

SID SEASON NUMBER BASIN SUBBASIN NAME ISO_TIME NATURE LAT LON WMO_WIND WMO_PRES WMO_AGENCY TRACK_TYPE DIST2LAND LANDFALL IFLAG USA_AGENCY USA_ATCF_ID USA_LAT USA_LON USA_RECORD USA_STATUS USA_WIND USA_PRES USA_SSHS USA_R34_NE USA_R34_SE USA_R34_SW USA_R34_NW USA_R50_NE USA_R50_SE USA_R50_SW USA_R50_NW USA_R64_NE USA_R64_SE USA_R64_SW USA_R64_NW USA_POCI USA_ROCI USA_RMW USA_EYE TOKYO_LAT TOKYO_LON TOKYO_GRADE TOKYO_WIND TOKYO_PRES TOKYO_R50_DIR TOKYO_R50_LONG TOKYO_R50_SHORT TOKYO_R30_DIR TOKYO_R30_LONG TOKYO_R30_SHORT TOKYO_LAND CMA_LAT CMA_LON CMA_CAT CMA_WIND CMA_PRES HKO_LAT HKO_LON HKO_CAT HKO_WIND HKO_PRES NEWDELHI_LAT NEWDELHI_LON NEWDELHI_GRADE NEWDELHI_WIND NEWDELHI_PRES NEWDELHI_CI NEWDELHI_DP NEWDELHI_POCI REUNION_LAT REUNION_LON REUNION_TYPE REUNION_WIND REUNION_PRES REUNION_TNUM REUNION_CI REUNION_RMW REUNION_R34_NE REUNION_R34_SE REUNION_R34_SW REUNION_R34_NW REUNION_R50_NE REUNION_R50_SE REUNION_R50_SW REUNION_R50_NW REUNION_R64_NE REUNION_R64_SE REUNION_R64_SW REUNION_R64_NW BOM_LAT BOM_LON BOM_TYPE BOM_WIND BOM_PRES BOM_TNUM BOM_CI BOM_RMW BOM_R34_NE BOM_R34_SE BOM_R34_SW BOM_R34_NW BOM_R50_NE BOM_R50_SE BOM_R50_SW BOM_R50_NW BOM_R64_NE BOM_R64_SE BOM_R64_SW BOM_R64_NW BOM_ROCI BOM_POCI BOM_EYE BOM_POS_METHOD BOM_PRES_METHOD NADI_LAT NADI_LON NADI_CAT NADI_WIND NADI_PRES WELLINGTON_LAT WELLINGTON_LON WELLINGTON_WIND WELLINGTON_PRES DS824_LAT DS824_LON DS824_STAGE DS824_WIND DS824_PRES TD9636_LAT TD9636_LON TD9636_STAGE TD9636_WIND TD9636_PRES TD9635_LAT TD9635_LON TD9635_WIND TD9635_PRES TD9635_ROCI NEUMANN_LAT NEUMANN_LON NEUMANN_CLASS NEUMANN_WIND NEUMANN_PRES MLC_LAT MLC_LON MLC_CLASS MLC_WIND MLC_PRES USA_GUST BOM_GUST BOM_GUST_PER REUNION_GUST REUNION_GUST_PER USA_SEAHGT USA_SEARAD_NE USA_SEARAD_SE USA_SEARAD_SW USA_SEARAD_NW STORM_SPEED STORM_DIR
1968223N26280 1968 63 NA NA DOLLY 1968-08-10 06:00:00 TS 25.9000 -80.0000 30 hurdat_atl main 9 0 O_____________ hurdat_atl AL051968 25.9000 -80.0000 TD 30 -1 12 341
1968223N26280 1968 63 NA NA DOLLY 1968-08-10 09:00:00 TS 26.4426 -80.2097 main 0 0 P_____________ AL051968 26.4426 -80.2097 TD 30 -1 12 342
1968223N26280 1968 63 NA NA DOLLY 1968-08-10 12:00:00 TS 27.0000 -80.4000 30 1012 hurdat_atl main 0 0 O_____________ hurdat_atl AL051968 27.0000 -80.4000 TD 30 1012 -1 12 345
1968223N26280 1968 63 NA NA DOLLY 1968-08-10 15:00:00 TS 27.5850 -80.5448 main 0 0 P_____________ AL051968 27.5850 -80.5448 TD 32 1011 -1 12 352
1968223N26280 1968 63 NA NA DOLLY 1968-08-10 18:00:00 TS 28.2000 -80.6000 35 hurdat_atl main 9 0 I_____________ hurdat_atl AL051968 28.2000 -80.6000 TS 35 1011 0 13 0
1968223N26280 1968 63 NA NA DOLLY 1968-08-10 21:00:00 TS 28.8349 -80.5524 main 14 14 P_____________ AL051968 28.8349 -80.5524 TS 35 1011 0 13 8
1968223N26280 1968 63 NA NA DOLLY 1968-08-11 00:00:00 TS 29.5000 -80.4000 35 1011 hurdat_atl main 65 65 O_____________ hurdat_atl AL051968 29.5000 -80.4000 TS 35 1011 0 14 12
1968223N26280 1968 63 NA NA DOLLY 1968-08-11 03:00:00 TS 30.2222 -80.2171 main 114 114 P_____________ AL051968 30.2222 -80.2171 TS 35 1009 0 15 17
1968223N26280 1968 63 NA NA DOLLY 1968-08-11 06:00:00 TS 30.9000 -79.9000 35 hurdat_atl main 140 137 I_____________ hurdat_atl AL051968 30.9000 -79.9000 TS 35 1007 0 14 29
1968223N26280 1968 63 NA NA DOLLY 1968-08-11 09:00:00 TS 31.4298 -79.4243 main 145 129 P_____________ AL051968 31.4298 -79.4243 TS 37 1005 0 14 43
1968223N26280 1968 63 NA NA DOLLY 1968-08-11 12:00:00 TS 31.9000 -78.8000 40 1004 hurdat_atl main 134 122 O_____________ hurdat_atl AL051968 31.9000 -78.8000 TS 40 1004 0 15 49
1968223N26280 1968 63 NA NA DOLLY 1968-08-11 15:00:00 TS 32.4073 -78.0946 main 135 128 P_____________ AL051968 32.4073 -78.0946 TS 42 0 16 52
1968223N26280 1968 63 NA NA DOLLY 1968-08-11 18:00:00 TS 32.9000 -77.3000 45 hurdat_atl main 128 124 O_____________ hurdat_atl AL051968 32.9000 -77.3000 TS 45 0 17 54
1968223N26280 1968 63 NA NA DOLLY 1968-08-11 21:00:00 TS 33.3790 -76.4944 main 144 124 P_____________ AL051968 33.3790 -76.4944 TS 47 0 17 58
1968223N26280 1968 63 NA NA DOLLY 1968-08-12 00:00:00 TS 33.8000 -75.6000 50 hurdat_atl main 129 129 O_____________ hurdat_atl AL051968 33.8000 -75.6000 TS 50 0 18 65
1968223N26280 1968 63 NA NA DOLLY 1968-08-12 03:00:00 TS 34.1221 -74.5862 main 179 179 P_____________ AL051968 34.1221 -74.5862 TS 52 0 18 71
1968223N26280 1968 63 NA NA DOLLY 1968-08-12 06:00:00 TS 34.4000 -73.5000 55 hurdat_atl main 239 239 O_____________ hurdat_atl AL051968 34.4000 -73.5000 TS 55 0 19 72
1968223N26280 1968 63 NA NA DOLLY 1968-08-12 09:00:00 TS 34.6915 -72.4139 main 306 306 P_____________ AL051968 34.6915 -72.4139 TS 60 0 19 72
1968223N26280 1968 63 NA NA DOLLY 1968-08-12 12:00:00 TS 35.0000 -71.3000 65 994 hurdat_atl main 390 390 O_____________ hurdat_atl AL051968 35.0000 -71.3000 HU 65 994 1 20 71
1968223N26280 1968 63 NA NA DOLLY 1968-08-12 15:00:00 TS 35.3414 -70.1643 main 481 481 P_____________ AL051968 35.3414 -70.1643 HU 70 991 1 20 70
1968223N26280 1968 63 NA NA DOLLY 1968-08-12 18:00:00 TS 35.7000 -69.0000 75 hurdat_atl main 585 585 I_____________ hurdat_atl AL051968 35.7000 -69.0000 HU 75 989 1 20 70
1968223N26280 1968 63 NA NA DOLLY 1968-08-12 21:00:00 TS 36.0565 -67.8069 main 651 649 P_____________ AL051968 36.0565 -67.8069 HU 75 987 1 21 70
1968223N26280 1968 63 NA NA DOLLY 1968-08-13 00:00:00 TS 36.4000 -66.6000 75 985 hurdat_atl main 658 656 O_____________ hurdat_atl AL051968 36.4000 -66.6000 HU 75 985 1 21 72
1968223N26280 1968 63 NA NA DOLLY 1968-08-13 03:00:00 TS 36.7067 -65.3839 main 682 682 P_____________ AL051968 36.7067 -65.3839 HU 72 987 1 20 73
1968223N26280 1968 63 NA NA DOLLY 1968-08-13 06:00:00 TS 37.0000 -64.2000 70 hurdat_atl main 721 712 I_____________ hurdat_atl AL051968 37.0000 -64.2000 HU 70 990 1 19 72
1968223N26280 1968 63 NA NA DOLLY 1968-08-13 09:00:00 TS 37.2987 -63.0766 main 714 708 P_____________ AL051968 37.2987 -63.0766 HU 65 992 1 18 71
1968223N26280 1968 63 NA NA DOLLY 1968-08-13 12:00:00 TS 37.6000 -62.0000 60 995 hurdat_atl main 712 709 O_____________ hurdat_atl AL051968 37.6000 -62.0000 TS 60 995 0 18 70
1968223N26280 1968 63 NA NA DOLLY 1968-08-13 15:00:00 TS 37.8982 -60.9638 main 720 720 P_____________ AL051968 37.8982 -60.9638 TS 60 995 0 18 70
1968223N26280 1968 63 NA NA DOLLY 1968-08-13 18:00:00 TS 38.2000 -59.9000 60 996 hurdat_atl main 743 743 O_____________ hurdat_atl AL051968 38.2000 -59.9000 TS 60 996 0 18 71
1968223N26280 1968 63 NA NA DOLLY 1968-08-13 21:00:00 TS 38.5052 -58.7739 main 764 761 P_____________ AL051968 38.5052 -58.7739 TS 60 997 0 20 72
1968223N26280 1968 63 NA NA DOLLY 1968-08-14 00:00:00 TS 38.8000 -57.5000 60 999 hurdat_atl main 770 770 O_____________ hurdat_atl AL051968 38.8000 -57.5000 TS 60 999 0 22 76
1968223N26280 1968 63 NA NA DOLLY 1968-08-14 03:00:00 TS 39.0574 -56.0014 main 797 797 P_____________ AL051968 39.0574 -56.0014 TS 65 995 1 25 78
1968223N26280 1968 63 NA NA DOLLY 1968-08-14 06:00:00 TS 39.3000 -54.4000 70 hurdat_atl main 814 789 I_____________ hurdat_atl AL051968 39.3000 -54.4000 HU 70 992 1 25 79
1968223N26280 1968 63 NA NA DOLLY 1968-08-14 09:00:00 TS 39.5568 -52.8124 main 779 768 P_____________ AL051968 39.5568 -52.8124 HU 72 989 1 24 78
1968223N26280 1968 63 NA NA DOLLY 1968-08-14 12:00:00 TS 39.8000 -51.3000 75 986 hurdat_atl main 771 767 O_____________ hurdat_atl AL051968 39.8000 -51.3000 HU 75 986 1 22 78
1968223N26280 1968 63 NA NA DOLLY 1968-08-14 15:00:00 TS 40.0127 -49.9466 main 780 775 P_____________ AL051968 40.0127 -49.9466 HU 75 1 20 79
1968223N26280 1968 63 NA NA DOLLY 1968-08-14 18:00:00 TS 40.2000 -48.7000 75 hurdat_atl main 798 798 O_____________ hurdat_atl AL051968 40.2000 -48.7000 HU 75 1 19 79
1968223N26280 1968 63 NA NA DOLLY 1968-08-14 21:00:00 TS 40.3635 -47.4769 main 827 827 P_____________ AL051968 40.3635 -47.4769 HU 75 1 18 81
1968223N26280 1968 63 NA NA DOLLY 1968-08-15 00:00:00 TS 40.5000 -46.3000 75 hurdat_atl main 875 875 O_____________ hurdat_atl AL051968 40.5000 -46.3000 HU 75 1 18 82
1968223N26280 1968 63 NA NA DOLLY 1968-08-15 03:00:00 TS 40.6132 -45.1571 main 924 924 P_____________ AL051968 40.6132 -45.1571 HU 72 1 18 83
1968223N26280 1968 63 NA NA DOLLY 1968-08-15 06:00:00 TS 40.7000 -44.0000 70 hurdat_atl main 985 985 O_____________ hurdat_atl AL051968 40.7000 -44.0000 HU 70 1 18 85
1968223N26280 1968 63 NA NA DOLLY 1968-08-15 09:00:00 TS 40.7564 -42.7719 main 1051 1051 P_____________ AL051968 40.7564 -42.7719 HU 67 1 19 87
1968223N26280 1968 63 NA NA DOLLY 1968-08-15 12:00:00 TS 40.8000 -41.5000 65 hurdat_atl main 1134 1134 O_____________ hurdat_atl AL051968 40.8000 -41.5000 HU 65 1 20 88
1968223N26280 1968 63 NA NA DOLLY 1968-08-15 15:00:00 TS 40.8268 -40.1911 main 1219 1219 P_____________ AL051968 40.8268 -40.1911 HU 62 0 20 87
1968223N26280 1968 63 NA NA DOLLY 1968-08-15 18:00:00 TS 40.9000 -38.9000 60 hurdat_atl main 1300 1300 O_____________ hurdat_atl AL051968 40.9000 -38.9000 TS 60 0 19 83
1968223N26280 1968 63 NA NA DOLLY 1968-08-15 21:00:00 TS 41.0531 -37.6916 main 1371 1371 P_____________ AL051968 41.0531 -37.6916 TS 55 0 18 78
1968223N26280 1968 63 NA NA DOLLY 1968-08-16 00:00:00 TS 41.3000 -36.5000 50 hurdat_atl main 1444 1444 O_____________ hurdat_atl AL051968 41.3000 -36.5000 TS 50 0 19 72
1968223N26280 1968 63 NA NA DOLLY 1968-08-16 03:00:00 TS 41.6423 -35.2288 main 1517 1511 P_____________ AL051968 41.6423 -35.2288 TS 45 0 20 69
1968223N26280 1968 63 NA NA DOLLY 1968-08-16 06:00:00 TS 42.0000 -34.0000 40 hurdat_atl main 1580 1580 O_____________ hurdat_atl AL051968 42.0000 -34.0000 TS 40 0 18 70
1968223N26280 1968 63 NA NA DOLLY 1968-08-16 09:00:00 TS 42.2775 -32.9411 main 1644 1644 P_____________ AL051968 42.2775 -32.9411 TS 35 0 16 72
1968223N26280 1968 63 NA NA DOLLY 1968-08-16 12:00:00 ET 42.5000 -31.9000 30 hurdat_atl main 1707 1707 O_____________ hurdat_atl AL051968 42.5000 -31.9000 EX 30 -4 17 76
1968223N26280 1968 63 NA NA DOLLY 1968-08-16 15:00:00 ET 42.6867 -30.7301 main 1733 1643 P_____________ AL051968 42.6867 -30.7301 EX 30 -4 18 80
1968223N26280 1968 63 NA NA DOLLY 1968-08-16 18:00:00 ET 42.8000 -29.5000 30 1010 hurdat_atl main 1635 1538 O_____________ hurdat_atl AL051968 42.8000 -29.5000 EX 30 1010 -4 18 86
1968223N26280 1968 63 NA NA DOLLY 1968-08-16 21:00:00 ET 42.8276 -28.2518 main 1538 1442 P_____________ AL051968 42.8276 -28.2518 EX 30 -4 18 90
1968223N26280 1968 63 NA NA DOLLY 1968-08-17 00:00:00 ET 42.8000 -27.0000 30 hurdat_atl main 1434 O_____________ hurdat_atl AL051968 42.8000 -27.0000 EX 30 -4 18 92

About IBTrACS Database

This database is a web-friendly format of International Best Track Archive for Climate Stewardship (IBTrACS), a global best track data archive curated by NOAA dating back to 1842.

Updated: 2022-11-16